This is the latest recevied weather packets stored in our database for station/object DL9LA-13. If no packets are shown the sender has not sent any weather packets the latest 1 day(s).
| Time | Temp. | Humidity | Pressure | Rain* | Wind** | Luminosity | Snow |
|---|---|---|---|---|---|---|---|
| 1777773294 | 12.78° C | 48% | 972 hPa | - | - | - | - |
| 1777772690 | 12.22° C | 49% | 972 hPa | - | - | - | - |
| 1777772087 | 11.67° C | 50% | 972 hPa | - | - | - | - |
| 1777771485 | 12.22° C | 49% | 972 hPa | - | - | - | - |
| 1777770880 | 12.22° C | 48% | 972 hPa | - | - | - | - |
| 1777770276 | 12.22° C | 48% | 972 hPa | - | - | - | - |
| 1777767861 | 13.89° C | 42% | 972 hPa | - | - | - | - |
| 1777767258 | 13.89° C | 40% | 972 hPa | - | - | - | - |
| 1777766654 | 13.33° C | 40% | 972 hPa | - | - | - | - |
| 1777766050 | 13.89° C | 41% | 972 hPa | - | - | - | - |
| 1777764239 | 13.33° C | 42% | 972 hPa | - | - | - | - |
| 1777763636 | 13.33° C | 43% | 972 hPa | - | - | - | - |
| 1777762429 | 12.78° C | 45% | 972 hPa | - | - | - | - |
| 1777761825 | 13.33° C | 44% | 972 hPa | - | - | - | - |
| 1777761221 | 13.89° C | 42% | 972 hPa | - | - | - | - |
| 1777760618 | 14.44° C | 40% | 972 hPa | - | - | - | - |
| 1777760014 | 15.56° C | 39% | 972 hPa | - | - | - | - |
| 1777759410 | 15.56° C | 37% | 972 hPa | - | - | - | - |
| 1777758807 | 16.11° C | 37% | 972 hPa | - | - | - | - |
| 1777758203 | 16.11° C | 37% | 972 hPa | - | - | - | - |
| 1777756996 | 16.11° C | 37% | 972 hPa | - | - | - | - |
| 1777756392 | 16.11° C | 38% | 972 hPa | - | - | - | - |
| 1777755789 | 16.67° C | 37% | 973 hPa | - | - | - | - |
| 1777755185 | 17.22° C | 36% | 973 hPa | - | - | - | - |
| 1777754581 | 17.22° C | 36% | 973 hPa | - | - | - | - |
* Rain since midnight (hover to see other rain measurements)
** Current wind speed in m/s (hover to see current wind gust speed)